createdAt,value
2022-10-02T00:00:02.567Z,90.941
2022-10-02T00:07:01.856Z,90.941
2022-10-02T00:14:02.252Z,91.547
2022-10-02T00:21:01.454Z,91.625
2022-10-02T00:28:01.581Z,91.625
2022-10-02T00:35:02.160Z,92.026
2022-10-02T00:42:01.910Z,92.327
2022-10-02T00:49:01.729Z,92.805
2022-10-02T00:56:01.772Z,92.805
2022-10-02T01:00:02.397Z,92.872
2022-10-02T01:07:02.139Z,92.872
2022-10-02T01:14:02.064Z,92.872
2022-10-02T01:21:02.015Z,93.052
2022-10-02T01:28:01.492Z,93.138
2022-10-02T01:35:01.988Z,93.138
2022-10-02T01:42:01.709Z,93.296
2022-10-02T01:49:01.370Z,93.52
2022-10-02T01:56:01.683Z,93.553
2022-10-02T02:00:02.358Z,93.553
2022-10-02T02:07:01.937Z,93.958
2022-10-02T02:14:01.510Z,93.958
2022-10-02T02:21:02.134Z,93.834
2022-10-02T02:28:01.590Z,93.984
2022-10-02T02:35:02.353Z,93.916
2022-10-02T02:42:02.273Z,93.916
2022-10-02T02:49:01.693Z,93.951
2022-10-02T02:56:01.690Z,93.95
2022-10-02T03:00:02.286Z,93.95
2022-10-02T03:07:01.781Z,94.002
2022-10-02T03:14:01.698Z,94.088
2022-10-02T03:21:01.658Z,94.088
2022-10-02T03:28:02.012Z,94.026
2022-10-02T03:35:01.638Z,94.159
2022-10-02T03:42:02.106Z,94.723
2022-10-02T03:49:01.869Z,94.723
2022-10-02T03:56:01.512Z,94.657
2022-10-02T04:00:02.205Z,94.657
2022-10-02T04:07:01.353Z,94.566
2022-10-02T04:14:02.149Z,94.692
2022-10-02T04:21:02.021Z,94.953
2022-10-02T04:28:02.237Z,94.953
2022-10-02T04:35:02.363Z,95.212
2022-10-02T04:42:01.741Z,95.326
2022-10-02T04:49:01.748Z,95.326
2022-10-02T04:56:01.665Z,95.326
2022-10-02T05:00:02.308Z,95.703
2022-10-02T05:07:01.341Z,95.703
2022-10-02T05:14:01.488Z,95.761
2022-10-02T05:21:02.289Z,95.761
2022-10-02T05:28:01.685Z,95.761
2022-10-02T05:35:01.988Z,96.392
2022-10-02T05:42:01.556Z,96.721
2022-10-02T05:49:01.393Z,96.721
2022-10-02T05:56:01.687Z,96.721
2022-10-02T06:00:02.473Z,96.666
2022-10-02T06:07:02.000Z,96.666
2022-10-02T06:14:01.782Z,96.666
2022-10-02T06:21:01.709Z,97.165
2022-10-02T06:28:01.427Z,97.331
2022-10-02T06:35:02.043Z,97.331
2022-10-02T06:42:01.706Z,97.525
2022-10-02T06:49:01.648Z,97.658
2022-10-02T06:56:01.991Z,97.658
2022-10-02T07:00:01.603Z,97.658
2022-10-02T07:07:01.918Z,97.996
2022-10-02T07:14:01.359Z,97.996
2022-10-02T07:21:01.837Z,98.264
2022-10-02T07:28:01.606Z,98.426
2022-10-02T07:35:02.398Z,98.475
2022-10-02T07:42:02.220Z,98.475
2022-10-02T07:49:01.538Z,98.475
2022-10-02T07:56:01.866Z,98.475
2022-10-02T08:00:02.506Z,98.475
2022-10-02T08:07:02.215Z,98.656
2022-10-02T08:14:02.287Z,98.786
2022-10-02T08:21:01.533Z,98.786
2022-10-02T08:28:01.516Z,98.766
2022-10-02T08:35:01.869Z,98.766
2022-10-02T08:42:01.638Z,98.781
2022-10-02T08:49:02.223Z,98.781
2022-10-02T08:56:02.188Z,98.934
2022-10-02T09:00:01.738Z,98.934
2022-10-02T09:07:01.930Z,98.934
2022-10-02T09:14:02.239Z,98.84
2022-10-02T09:21:01.485Z,98.803
2022-10-02T09:28:01.502Z,98.803
2022-10-02T09:35:02.223Z,98.947
2022-10-02T09:42:01.721Z,98.728
2022-10-02T09:49:01.564Z,98.608
2022-10-02T09:56:01.459Z,98.608
2022-10-02T10:00:02.062Z,98.608
2022-10-02T10:07:02.002Z,98.608
2022-10-02T10:14:01.893Z,98.596
2022-10-02T10:21:02.150Z,98.406
2022-10-02T10:28:01.474Z,98.307
2022-10-02T10:35:01.918Z,98.307
2022-10-02T10:42:02.084Z,98.307
2022-10-02T10:49:01.980Z,98.307
2022-10-02T10:56:01.751Z,98.307
2022-10-02T11:07:01.384Z,97.739
2022-10-02T11:14:01.937Z,97.739
2022-10-02T11:21:01.712Z,97.28
2022-10-02T11:28:01.638Z,96.775
2022-10-02T11:35:02.355Z,95.812
2022-10-02T11:42:01.528Z,95.812
2022-10-02T11:49:01.632Z,95.759
2022-10-02T11:56:02.150Z,94.855
2022-10-02T12:00:01.806Z,94.855
2022-10-02T12:07:01.577Z,94.634
2022-10-02T12:14:02.043Z,93.907
2022-10-02T12:21:01.749Z,93.907
2022-10-02T12:28:01.454Z,93.462
2022-10-02T12:35:02.540Z,91.993
2022-10-02T12:42:02.070Z,91.993
2022-10-02T12:49:02.126Z,91.993
2022-10-02T12:56:01.798Z,89.666
2022-10-02T13:00:02.324Z,89.666
2022-10-02T13:07:01.804Z,89.412
2022-10-02T13:14:01.523Z,88.769
2022-10-02T13:21:01.905Z,88.769
2022-10-02T13:28:01.469Z,88.055
2022-10-02T13:35:02.695Z,88.055
2022-10-02T13:42:02.120Z,87.283
2022-10-02T13:49:01.803Z,87.283
2022-10-02T13:56:02.002Z,86.8
2022-10-02T14:00:01.572Z,86.8
2022-10-02T14:07:01.560Z,86.8
2022-10-02T14:14:03.579Z,85.333
2022-10-02T14:21:02.179Z,85.242
2022-10-02T14:28:01.466Z,85.242
2022-10-02T14:35:01.813Z,85.242
2022-10-02T14:42:02.036Z,85.575
2022-10-02T14:49:01.670Z,85.575
2022-10-02T14:56:01.456Z,85.689
2022-10-02T15:00:02.033Z,85.425
2022-10-02T15:07:02.025Z,85.425
2022-10-02T15:14:02.309Z,85.28
2022-10-02T15:21:01.649Z,85.28
2022-10-02T15:28:24.153Z,85.28
2022-10-02T15:35:01.896Z,85.28
